Погода Арагуана 2 недели

Арагуа, Венесуэла

04 - 17 марта
  • 04марта
    Сегодня
    +20°
    +37°
    Практически безоблачно
    ВремяПогодаТемператураВлажностьДавлениеВетер, м/сВероятность осадков
    02:00Небольшая облачность+22°C82 %709 мм2.0 м/с2 %
    05:00Небольшая облачность+22°C78 %709 мм2.2 м/с3 %
    08:00Практически безоблачно+22°C63 %710 мм2.4 м/с3 %
    11:00Ясно и безоблачно+31°C37 %712 мм2.3 м/с3 %
    14:00Практически безоблачно+36°C25 %709 мм1.2 м/с17 %
    17:00Небольшая облачность+34°C34 %708 мм1.8 м/с14 %
    20:00Ясно и безоблачно+26°C69 %708 мм4.2 м/с2 %
    23:00Небольшая облачность+23°C82 %709 мм2.6 м/с2 %
  • 05марта
    Вторник
    +20°
    +38°
    Практически безоблачно
    ВремяПогодаТемператураВлажностьДавлениеВетер, м/сВероятность осадков
    02:00Небольшая облачность+22°C84 %709 мм2.3 м/с3 %
    05:00Небольшая облачность+22°C83 %708 мм2.1 м/с2 %
    08:00Ясно и безоблачно+22°C70 %710 мм2.7 м/с2 %
    11:00Ясно и безоблачно+32°C33 %711 мм3.0 м/с2 %
    14:00Практически безоблачно+37°C23 %708 мм1.7 м/с15 %
    17:00Облачно с прояснениями+35°C29 %707 мм2.4 м/с9 %
    20:00Ясно и безоблачно+27°C62 %708 мм3.9 м/с2 %
    23:00Небольшая облачность+24°C81 %709 мм3.1 м/с2 %
  • 06марта
    Среда
    +20°
    +36°
    Практически безоблачно
    ВремяПогодаТемператураВлажностьДавлениеВетер, м/сВероятность осадков
    02:00Небольшая облачность+23°C85 %708 мм2.3 м/с6 %
    05:00Небольшая облачность+23°C78 %708 мм2.5 м/с5 %
    08:00Практически безоблачно+22°C70 %709 мм3.4 м/с3 %
    11:00Практически безоблачно+31°C43 %711 мм3.6 м/с10 %
    14:00Практически безоблачно+35°C38 %709 мм2.8 м/с40 %
    17:00Небольшая облачность и лёгкий дождик+34°C40 %707 мм2.5 м/с33 %
    20:00Ясно и безоблачно+28°C55 %708 мм3.8 м/с7 %
    23:00Практически безоблачно+24°C77 %709 мм3.7 м/с2 %
  • 07марта
    Четверг
    +21°
    +36°
    Небольшая облачность
    ВремяПогодаТемператураВлажностьДавлениеВетер, м/сВероятность осадков
    02:00Ясно и безоблачно+23°C75 %708 мм3.2 м/с2 %
    05:00Ясно и безоблачно+22°C77 %708 мм3.3 м/с2 %
    08:00Ясно и безоблачно+22°C68 %710 мм3.2 м/с2 %
    11:00Ясно и безоблачно+32°C45 %711 мм4.2 м/с3 %
    14:00Небольшая облачность+36°C39 %709 мм3.6 м/с32 %
    17:00Небольшая облачность+35°C38 %707 мм2.9 м/с46 %
    20:00Ясно и безоблачно+28°C63 %709 мм3.9 м/с22 %
    23:00Облачно с прояснениями+24°C85 %710 мм3.8 м/с3 %
  • 08марта
    Пятница
    +22°
    +37°
    Практически безоблачно
    ВремяПогодаТемператураВлажностьДавлениеВетер, м/сВероятность осадков
    02:00Небольшая облачность+23°C83 %709 мм3.2 м/с4 %
    05:00Облачно с прояснениями+22°C87 %708 мм3.1 м/с3 %
    08:00Небольшая облачность+23°C75 %710 мм3.2 м/с2 %
    11:00Небольшая облачность+31°C43 %711 мм4.6 м/с13 %
    14:00Практически безоблачно+36°C35 %710 мм3.3 м/с44 %
    17:00Практически безоблачно+35°C34 %708 мм3.1 м/с37 %
    20:00Ясно и безоблачно+28°C66 %709 мм3.5 м/с11 %
    23:00Облачно с прояснениями+24°C87 %710 мм3.7 м/с2 %
Мы используем cookies
Соглашаюсь